GVBA

Rabil Airport

Rabil, Cape Verde
METAR GVBA 131900Z 04016KT CAVOK 23/17 Q1017 NOSIG
Observed Flight Rules
Dec-13 @ 19:00 UTC (7 hours ago) Visual Flight Rules
Wind Visibility Clouds
40° at 16 knots 10,000+ meters
  • Clear skies
Temperatures Readings
Current 23°C / 73°F
Dewpoint 17°C / 63°F
Humidity 69%
Altimeter 30.03" Hg
Pressure 1017 hPa
Elevation 22
METAR GVBA 131900Z 04016KT CAVOK 23/17 Q1017 NOSIG
Observed Flight Rules
Dec-13 @ 19:00 UTC
(7 hours ago)
VFR
Wind Visibility
40° at 16 knots 10,000+ meters
Clouds
  • Clear skies
Temperature Dewpoint
23°C / 73°F 17°C / 63°F
Humidity Altimeter Pressure
69% 30.03" Hg 1017 hPa